sensor_id;sensor_type;location;lat;lon;timestamp;temperature;humidity
997;DHT22;487;50.126;8.698;2022-12-16T00:01:14;-2.30;1.00
997;DHT22;487;50.126;8.698;2022-12-16T00:03:46;-2.30;1.00
997;DHT22;487;50.126;8.698;2022-12-16T00:06:18;-2.30;1.00
997;DHT22;487;50.126;8.698;2022-12-16T00:08:46;-2.30;1.00
997;DHT22;487;50.126;8.698;2022-12-16T00:11:14;-2.30;1.00
997;DHT22;487;50.126;8.698;2022-12-16T00:13:43;-2.30;1.00
997;DHT22;487;50.126;8.698;2022-12-16T00:16:13;-2.30;1.00
997;DHT22;487;50.126;8.698;2022-12-16T00:18:41;-2.30;1.00
997;DHT22;487;50.126;8.698;2022-12-16T00:21:10;-2.20;1.00
997;DHT22;487;50.126;8.698;2022-12-16T00:23:38;-2.20;1.00
997;DHT22;487;50.126;8.698;2022-12-16T00:26:07;-2.20;1.00
997;DHT22;487;50.126;8.698;2022-12-16T00:28:36;-2.20;1.00
997;DHT22;487;50.126;8.698;2022-12-16T00:31:04;-2.30;1.00
997;DHT22;487;50.126;8.698;2022-12-16T00:33:34;-2.20;1.00
997;DHT22;487;50.126;8.698;2022-12-16T00:36:02;-2.20;1.00
997;DHT22;487;50.126;8.698;2022-12-16T00:38:30;-2.20;1.00
997;DHT22;487;50.126;8.698;2022-12-16T00:40:58;-2.10;1.00
997;DHT22;487;50.126;8.698;2022-12-16T00:43:26;-2.20;1.00
997;DHT22;487;50.126;8.698;2022-12-16T00:45:54;-2.10;1.00
997;DHT22;487;50.126;8.698;2022-12-16T00:48:22;-2.10;1.00
997;DHT22;487;50.126;8.698;2022-12-16T00:50:53;-2.10;1.00
997;DHT22;487;50.126;8.698;2022-12-16T00:53:23;-2.10;1.00
997;DHT22;487;50.126;8.698;2022-12-16T00:55:51;-2.10;1.00
997;DHT22;487;50.126;8.698;2022-12-16T00:58:20;-2.00;1.00
997;DHT22;487;50.126;8.698;2022-12-16T05:04:56;-2.20;1.00
997;DHT22;487;50.126;8.698;2022-12-16T05:07:42;-2.30;1.00
997;DHT22;487;50.126;8.698;2022-12-16T05:10:28;-2.30;1.00
997;DHT22;487;50.126;8.698;2022-12-16T05:13:13;-2.30;1.00
997;DHT22;487;50.126;8.698;2022-12-16T05:15:58;-2.30;1.00
997;DHT22;487;50.126;8.698;2022-12-16T05:18:45;-2.40;1.00
997;DHT22;487;50.126;8.698;2022-12-16T05:21:27;-2.40;1.00
997;DHT22;487;50.126;8.698;2022-12-16T05:24:12;-2.40;1.00
997;DHT22;487;50.126;8.698;2022-12-16T05:26:58;-2.40;1.00
997;DHT22;487;50.126;8.698;2022-12-16T05:29:44;-2.40;1.00
997;DHT22;487;50.126;8.698;2022-12-16T05:32:29;-2.40;1.00
997;DHT22;487;50.126;8.698;2022-12-16T05:35:17;-2.40;1.00
997;DHT22;487;50.126;8.698;2022-12-16T05:38:02;-2.40;1.00
997;DHT22;487;50.126;8.698;2022-12-16T05:40:48;-2.40;1.00
997;DHT22;487;50.126;8.698;2022-12-16T05:43:35;-2.40;1.00
997;DHT22;487;50.126;8.698;2022-12-16T05:46:20;-2.40;1.00
997;DHT22;487;50.126;8.698;2022-12-16T05:49:06;-2.40;1.00
997;DHT22;487;50.126;8.698;2022-12-16T05:51:52;-2.40;1.00
997;DHT22;487;50.126;8.698;2022-12-16T05:54:38;-2.40;1.00
997;DHT22;487;50.126;8.698;2022-12-16T05:57:23;-2.40;1.00
997;DHT22;487;50.126;8.698;2022-12-16T06:00:10;-2.40;1.00
997;DHT22;487;50.126;8.698;2022-12-16T06:02:55;-1.60;1.00
997;DHT22;487;50.126;8.698;2022-12-16T06:05:41;-2.40;1.00
997;DHT22;487;50.126;8.698;2022-12-16T06:08:24;-2.50;1.00
997;DHT22;487;50.126;8.698;2022-12-16T06:11:09;-2.40;1.00
997;DHT22;487;50.126;8.698;2022-12-16T06:13:55;-2.50;1.00
997;DHT22;487;50.126;8.698;2022-12-16T06:16:40;-2.40;1.00
997;DHT22;487;50.126;8.698;2022-12-16T06:19:26;-2.40;1.00
997;DHT22;487;50.126;8.698;2022-12-16T06:22:11;-2.40;1.00
997;DHT22;487;50.126;8.698;2022-12-16T06:24:58;-2.40;1.00
997;DHT22;487;50.126;8.698;2022-12-16T06:27:49;-2.50;1.00
997;DHT22;487;50.126;8.698;2022-12-16T06:30:34;-2.50;1.00
997;DHT22;487;50.126;8.698;2022-12-16T06:33:21;-2.50;1.00
997;DHT22;487;50.126;8.698;2022-12-16T06:36:07;-2.50;1.00
997;DHT22;487;50.126;8.698;2022-12-16T06:38:52;-2.50;1.00
997;DHT22;487;50.126;8.698;2022-12-16T06:41:39;-2.40;1.00
997;DHT22;487;50.126;8.698;2022-12-16T06:44:39;-2.40;1.00
997;DHT22;487;50.126;8.698;2022-12-16T06:47:24;-2.50;1.00
997;DHT22;487;50.126;8.698;2022-12-16T06:50:10;-2.40;1.00
997;DHT22;487;50.126;8.698;2022-12-16T06:52:59;-2.40;1.00
997;DHT22;487;50.126;8.698;2022-12-16T06:55:45;-2.40;1.00
997;DHT22;487;50.126;8.698;2022-12-16T06:58:31;-2.30;1.00
997;DHT22;487;50.126;8.698;2022-12-16T07:01:17;-2.30;1.00
997;DHT22;487;50.126;8.698;2022-12-16T07:04:02;-2.30;1.00
997;DHT22;487;50.126;8.698;2022-12-16T07:06:48;-2.30;1.00
997;DHT22;487;50.126;8.698;2022-12-16T07:09:33;-2.30;1.00
997;DHT22;487;50.126;8.698;2022-12-16T07:12:19;-2.30;1.00
997;DHT22;487;50.126;8.698;2022-12-16T07:15:08;-2.30;1.00
997;DHT22;487;50.126;8.698;2022-12-16T07:17:53;-2.30;1.00
997;DHT22;487;50.126;8.698;2022-12-16T07:20:39;-2.30;1.00
997;DHT22;487;50.126;8.698;2022-12-16T07:23:24;-2.30;1.00
997;DHT22;487;50.126;8.698;2022-12-16T07:26:10;-2.30;1.00
997;DHT22;487;50.126;8.698;2022-12-16T07:28:55;-2.20;1.00
997;DHT22;487;50.126;8.698;2022-12-16T07:31:42;-2.20;1.00
997;DHT22;487;50.126;8.698;2022-12-16T07:34:28;-2.10;1.00
997;DHT22;487;50.126;8.698;2022-12-16T07:37:16;-2.20;1.00
997;DHT22;487;50.126;8.698;2022-12-16T07:40:01;-2.20;1.00
997;DHT22;487;50.126;8.698;2022-12-16T07:42:46;-2.20;1.00
997;DHT22;487;50.126;8.698;2022-12-16T07:45:31;-2.20;1.00
997;DHT22;487;50.126;8.698;2022-12-16T07:48:19;-2.20;1.00
997;DHT22;487;50.126;8.698;2022-12-16T07:51:05;-2.20;1.00
997;DHT22;487;50.126;8.698;2022-12-16T07:53:50;-2.20;1.00
997;DHT22;487;50.126;8.698;2022-12-16T07:56:36;-2.20;1.00
997;DHT22;487;50.126;8.698;2022-12-16T07:59:21;-2.10;1.00
997;DHT22;487;50.126;8.698;2022-12-16T08:02:08;-2.10;1.00
997;DHT22;487;50.126;8.698;2022-12-16T08:04:55;-2.10;1.00
997;DHT22;487;50.126;8.698;2022-12-16T08:07:40;-2.10;1.00
997;DHT22;487;50.126;8.698;2022-12-16T08:10:26;-2.10;1.00
997;DHT22;487;50.126;8.698;2022-12-16T08:13:11;-2.10;1.00
997;DHT22;487;50.126;8.698;2022-12-16T08:15:57;-2.00;1.00
997;DHT22;487;50.126;8.698;2022-12-16T08:18:41;-2.00;1.00
997;DHT22;487;50.126;8.698;2022-12-16T08:21:37;-2.00;1.00
997;DHT22;487;50.126;8.698;2022-12-16T08:24:22;-2.00;1.00
997;DHT22;487;50.126;8.698;2022-12-16T08:27:16;-2.00;1.00
997;DHT22;487;50.126;8.698;2022-12-16T08:30:03;-1.90;1.00
997;DHT22;487;50.126;8.698;2022-12-16T08:32:48;-1.80;1.00
997;DHT22;487;50.126;8.698;2022-12-16T08:35:45;-1.80;1.00
997;DHT22;487;50.126;8.698;2022-12-16T08:38:31;-1.80;1.00
997;DHT22;487;50.126;8.698;2022-12-16T08:41:16;-1.70;1.00
997;DHT22;487;50.126;8.698;2022-12-16T08:44:02;-1.70;1.00
997;DHT22;487;50.126;8.698;2022-12-16T08:46:47;-1.70;1.00
997;DHT22;487;50.126;8.698;2022-12-16T08:49:34;-1.70;1.00
997;DHT22;487;50.126;8.698;2022-12-16T08:52:27;-1.70;1.00
997;DHT22;487;50.126;8.698;2022-12-16T08:55:10;-1.70;1.00
997;DHT22;487;50.126;8.698;2022-12-16T08:57:55;-1.70;1.00
997;DHT22;487;50.126;8.698;2022-12-16T09:00:41;-1.70;1.00
997;DHT22;487;50.126;8.698;2022-12-16T09:03:32;-1.70;1.00
997;DHT22;487;50.126;8.698;2022-12-16T09:06:18;-1.70;1.00
997;DHT22;487;50.126;8.698;2022-12-16T09:09:06;-1.70;1.00
997;DHT22;487;50.126;8.698;2022-12-16T09:11:53;-1.70;1.00
997;DHT22;487;50.126;8.698;2022-12-16T09:14:38;-1.60;1.00
997;DHT22;487;50.126;8.698;2022-12-16T09:17:24;-1.50;1.00
997;DHT22;487;50.126;8.698;2022-12-16T09:20:09;-1.60;1.00
997;DHT22;487;50.126;8.698;2022-12-16T09:22:55;-1.50;1.00
997;DHT22;487;50.126;8.698;2022-12-16T09:25:40;-1.40;1.00
997;DHT22;487;50.126;8.698;2022-12-16T09:28:27;-1.30;1.00
997;DHT22;487;50.126;8.698;2022-12-16T09:31:13;-1.30;1.00
997;DHT22;487;50.126;8.698;2022-12-16T09:33:58;-1.30;1.00
997;DHT22;487;50.126;8.698;2022-12-16T09:36:43;-1.20;1.00
997;DHT22;487;50.126;8.698;2022-12-16T09:39:29;-1.20;1.00
997;DHT22;487;50.126;8.698;2022-12-16T09:42:22;-1.10;1.00
997;DHT22;487;50.126;8.698;2022-12-16T09:45:18;-1.00;1.00
997;DHT22;487;50.126;8.698;2022-12-16T09:48:11;-1.00;1.00
997;DHT22;487;50.126;8.698;2022-12-16T09:51:01;-1.00;1.00
997;DHT22;487;50.126;8.698;2022-12-16T09:53:49;-1.00;1.00
997;DHT22;487;50.126;8.698;2022-12-16T09:56:35;-1.00;1.00
997;DHT22;487;50.126;8.698;2022-12-16T09:59:24;-0.90;1.00
997;DHT22;487;50.126;8.698;2022-12-16T10:02:15;-0.90;1.00
997;DHT22;487;50.126;8.698;2022-12-16T10:05:02;-0.90;1.00
997;DHT22;487;50.126;8.698;2022-12-16T10:08:02;-0.90;1.00
997;DHT22;487;50.126;8.698;2022-12-16T10:10:57;-0.90;1.00
997;DHT22;487;50.126;8.698;2022-12-16T10:13:50;-0.90;1.00
997;DHT22;487;50.126;8.698;2022-12-16T10:16:49;-0.80;1.00
997;DHT22;487;50.126;8.698;2022-12-16T10:19:45;-0.80;1.00
997;DHT22;487;50.126;8.698;2022-12-16T10:22:39;-0.70;1.00
997;DHT22;487;50.126;8.698;2022-12-16T10:25:29;-0.70;1.00
997;DHT22;487;50.126;8.698;2022-12-16T10:28:18;-0.70;1.00
997;DHT22;487;50.126;8.698;2022-12-16T10:31:12;-0.70;1.00
997;DHT22;487;50.126;8.698;2022-12-16T10:33:59;-0.70;1.00
997;DHT22;487;50.126;8.698;2022-12-16T10:36:46;-0.70;1.00
997;DHT22;487;50.126;8.698;2022-12-16T10:39:43;-0.60;1.00
997;DHT22;487;50.126;8.698;2022-12-16T10:42:30;-0.60;1.00
997;DHT22;487;50.126;8.698;2022-12-16T10:45:20;-0.50;1.00
997;DHT22;487;50.126;8.698;2022-12-16T10:48:08;-0.40;1.00
997;DHT22;487;50.126;8.698;2022-12-16T10:50:54;-0.30;1.00
997;DHT22;487;50.126;8.698;2022-12-16T10:53:41;-0.30;1.00
997;DHT22;487;50.126;8.698;2022-12-16T10:56:39;-0.40;1.00
997;DHT22;487;50.126;8.698;2022-12-16T10:59:33;-0.40;1.00
997;DHT22;487;50.126;8.698;2022-12-16T11:02:22;-0.30;1.00
997;DHT22;487;50.126;8.698;2022-12-16T11:05:31;-0.30;1.00
997;DHT22;487;50.126;8.698;2022-12-16T11:08:25;-0.30;1.00
997;DHT22;487;50.126;8.698;2022-12-16T11:11:17;-0.30;1.00
997;DHT22;487;50.126;8.698;2022-12-16T11:14:22;-0.20;1.00
997;DHT22;487;50.126;8.698;2022-12-16T11:20:17;-0.10;1.00
997;DHT22;487;50.126;8.698;2022-12-16T11:23:13;0.00;1.00
997;DHT22;487;50.126;8.698;2022-12-16T11:26:08;0.00;1.00
997;DHT22;487;50.126;8.698;2022-12-16T11:29:10;0.00;1.00
997;DHT22;487;50.126;8.698;2022-12-16T11:32:00;0.00;1.00
997;DHT22;487;50.126;8.698;2022-12-16T11:34:51;0.10;1.00
997;DHT22;487;50.126;8.698;2022-12-16T11:37:37;0.10;1.00
997;DHT22;487;50.126;8.698;2022-12-16T11:40:25;0.10;1.00
997;DHT22;487;50.126;8.698;2022-12-16T11:43:13;0.10;1.00
997;DHT22;487;50.126;8.698;2022-12-16T11:46:05;0.30;1.00
997;DHT22;487;50.126;8.698;2022-12-16T11:48:56;0.30;1.00
997;DHT22;487;50.126;8.698;2022-12-16T11:51:54;0.40;1.00
997;DHT22;487;50.126;8.698;2022-12-16T11:55:06;0.40;1.00
997;DHT22;487;50.126;8.698;2022-12-16T11:58:20;0.50;1.00
997;DHT22;487;50.126;8.698;2022-12-16T12:01:14;0.30;1.00
997;DHT22;487;50.126;8.698;2022-12-16T12:04:08;0.50;1.00
997;DHT22;487;50.126;8.698;2022-12-16T12:07:19;0.40;1.00
997;DHT22;487;50.126;8.698;2022-12-16T12:13:40;0.40;1.00
997;DHT22;487;50.126;8.698;2022-12-16T12:16:34;0.50;1.00
997;DHT22;487;50.126;8.698;2022-12-16T12:19:30;0.40;1.00
997;DHT22;487;50.126;8.698;2022-12-16T12:22:31;0.40;1.00
997;DHT22;487;50.126;8.698;2022-12-16T12:25:23;0.40;1.00
997;DHT22;487;50.126;8.698;2022-12-16T12:28:22;0.40;1.00
997;DHT22;487;50.126;8.698;2022-12-16T12:31:18;0.50;1.00
997;DHT22;487;50.126;8.698;2022-12-16T12:34:11;0.50;1.00
997;DHT22;487;50.126;8.698;2022-12-16T12:37:05;0.30;1.00
997;DHT22;487;50.126;8.698;2022-12-16T12:39:59;0.40;1.00
997;DHT22;487;50.126;8.698;2022-12-16T12:42:50;0.40;1.00
997;DHT22;487;50.126;8.698;2022-12-16T12:45:52;0.40;1.00
997;DHT22;487;50.126;8.698;2022-12-16T12:48:44;0.50;1.00
997;DHT22;487;50.126;8.698;2022-12-16T12:51:38;0.50;1.00
997;DHT22;487;50.126;8.698;2022-12-16T12:54:31;0.50;1.00
997;DHT22;487;50.126;8.698;2022-12-16T12:57:21;0.50;1.00
997;DHT22;487;50.126;8.698;2022-12-16T13:00:14;0.50;1.00
997;DHT22;487;50.126;8.698;2022-12-16T13:03:03;0.50;1.00
997;DHT22;487;50.126;8.698;2022-12-16T13:05:52;0.50;1.00
997;DHT22;487;50.126;8.698;2022-12-16T13:08:46;0.50;1.00
997;DHT22;487;50.126;8.698;2022-12-16T13:11:38;0.40;1.00
997;DHT22;487;50.126;8.698;2022-12-16T13:14:55;0.50;1.00
997;DHT22;487;50.126;8.698;2022-12-16T13:18:12;0.50;1.00
997;DHT22;487;50.126;8.698;2022-12-16T13:20:57;0.60;1.00
997;DHT22;487;50.126;8.698;2022-12-16T13:23:45;0.60;1.00
997;DHT22;487;50.126;8.698;2022-12-16T13:26:32;0.70;1.00
997;DHT22;487;50.126;8.698;2022-12-16T13:29:20;0.80;1.00
997;DHT22;487;50.126;8.698;2022-12-16T13:32:16;0.80;1.00
997;DHT22;487;50.126;8.698;2022-12-16T13:35:04;0.80;1.00
997;DHT22;487;50.126;8.698;2022-12-16T13:37:51;0.80;1.00
997;DHT22;487;50.126;8.698;2022-12-16T13:40:52;0.80;1.00
997;DHT22;487;50.126;8.698;2022-12-16T13:43:48;0.80;1.00
997;DHT22;487;50.126;8.698;2022-12-16T13:46:42;0.80;1.00
997;DHT22;487;50.126;8.698;2022-12-16T13:49:42;0.90;1.00
997;DHT22;487;50.126;8.698;2022-12-16T13:52:36;0.80;1.00
997;DHT22;487;50.126;8.698;2022-12-16T13:55:28;0.80;1.00
997;DHT22;487;50.126;8.698;2022-12-16T13:58:28;0.70;1.00
997;DHT22;487;50.126;8.698;2022-12-16T14:01:19;0.70;1.00
997;DHT22;487;50.126;8.698;2022-12-16T14:12:48;0.60;1.00
997;DHT22;487;50.126;8.698;2022-12-16T14:15:45;0.60;1.00
997;DHT22;487;50.126;8.698;2022-12-16T14:18:42;0.60;1.00
997;DHT22;487;50.126;8.698;2022-12-16T14:21:36;0.70;1.00
997;DHT22;487;50.126;8.698;2022-12-16T14:24:26;0.70;1.00
997;DHT22;487;50.126;8.698;2022-12-16T14:27:13;0.60;1.00
997;DHT22;487;50.126;8.698;2022-12-16T14:30:03;0.60;1.00
997;DHT22;487;50.126;8.698;2022-12-16T14:33:13;0.60;1.00
997;DHT22;487;50.126;8.698;2022-12-16T14:35:59;0.50;1.00
997;DHT22;487;50.126;8.698;2022-12-16T14:38:46;0.50;1.00
997;DHT22;487;50.126;8.698;2022-12-16T14:41:33;0.50;1.00
997;DHT22;487;50.126;8.698;2022-12-16T14:44:20;0.50;1.00
997;DHT22;487;50.126;8.698;2022-12-16T14:47:15;0.40;1.00
997;DHT22;487;50.126;8.698;2022-12-16T14:50:03;0.40;1.00
997;DHT22;487;50.126;8.698;2022-12-16T14:53:11;0.40;1.00
997;DHT22;487;50.126;8.698;2022-12-16T14:56:13;0.30;1.00
997;DHT22;487;50.126;8.698;2022-12-16T14:59:12;0.20;1.00
997;DHT22;487;50.126;8.698;2022-12-16T15:02:07;0.20;1.00
997;DHT22;487;50.126;8.698;2022-12-16T15:04:56;0.20;1.00
997;DHT22;487;50.126;8.698;2022-12-16T15:07:43;0.20;1.00
997;DHT22;487;50.126;8.698;2022-12-16T15:10:28;0.20;1.00
997;DHT22;487;50.126;8.698;2022-12-16T15:13:15;0.10;1.00
997;DHT22;487;50.126;8.698;2022-12-16T15:16:10;0.10;1.00
997;DHT22;487;50.126;8.698;2022-12-16T15:19:00;0.10;1.00
997;DHT22;487;50.126;8.698;2022-12-16T15:21:46;0.00;1.00
997;DHT22;487;50.126;8.698;2022-12-16T15:24:36;0.00;1.00
997;DHT22;487;50.126;8.698;2022-12-16T15:27:25;0.00;1.00
997;DHT22;487;50.126;8.698;2022-12-16T15:30:31;0.00;1.00
997;DHT22;487;50.126;8.698;2022-12-16T15:33:19;-0.10;1.00
997;DHT22;487;50.126;8.698;2022-12-16T15:36:06;-0.20;1.00
997;DHT22;487;50.126;8.698;2022-12-16T15:38:58;-0.20;1.00
997;DHT22;487;50.126;8.698;2022-12-16T15:41:46;-0.20;1.00
997;DHT22;487;50.126;8.698;2022-12-16T15:44:31;-0.20;1.00
997;DHT22;487;50.126;8.698;2022-12-16T15:47:20;-0.20;1.00
997;DHT22;487;50.126;8.698;2022-12-16T15:50:12;-0.30;1.00
997;DHT22;487;50.126;8.698;2022-12-16T15:53:13;-0.30;1.00
997;DHT22;487;50.126;8.698;2022-12-16T15:56:00;-0.30;1.00
997;DHT22;487;50.126;8.698;2022-12-16T15:58:46;-0.40;1.00
997;DHT22;487;50.126;8.698;2022-12-16T16:01:39;-0.40;1.00
997;DHT22;487;50.126;8.698;2022-12-16T16:04:30;-0.40;1.00
997;DHT22;487;50.126;8.698;2022-12-16T16:07:17;-0.40;1.00
997;DHT22;487;50.126;8.698;2022-12-16T16:10:13;-0.50;1.00
997;DHT22;487;50.126;8.698;2022-12-16T16:12:59;-0.50;1.00
997;DHT22;487;50.126;8.698;2022-12-16T16:15:42;-0.50;1.00
997;DHT22;487;50.126;8.698;2022-12-16T16:18:28;-0.50;1.00
997;DHT22;487;50.126;8.698;2022-12-16T16:21:13;-0.50;1.00
997;DHT22;487;50.126;8.698;2022-12-16T16:23:58;-0.60;1.00
997;DHT22;487;50.126;8.698;2022-12-16T16:26:44;-0.60;1.00
997;DHT22;487;50.126;8.698;2022-12-16T16:29:44;-0.60;1.00
997;DHT22;487;50.126;8.698;2022-12-16T16:32:31;-0.70;1.00
997;DHT22;487;50.126;8.698;2022-12-16T16:35:16;-0.70;1.00
997;DHT22;487;50.126;8.698;2022-12-16T16:38:02;-0.70;1.00
997;DHT22;487;50.126;8.698;2022-12-16T16:40:48;-0.70;1.00
997;DHT22;487;50.126;8.698;2022-12-16T16:43:33;-0.80;1.00
997;DHT22;487;50.126;8.698;2022-12-16T16:46:32;-0.70;1.00
997;DHT22;487;50.126;8.698;2022-12-16T16:49:22;-0.80;1.00
997;DHT22;487;50.126;8.698;2022-12-16T16:52:12;-0.80;1.00
997;DHT22;487;50.126;8.698;2022-12-16T16:54:57;-0.80;1.00
997;DHT22;487;50.126;8.698;2022-12-16T16:57:43;-0.80;1.00
997;DHT22;487;50.126;8.698;2022-12-16T17:00:29;-0.80;1.00
997;DHT22;487;50.126;8.698;2022-12-16T17:03:15;-0.90;1.00
997;DHT22;487;50.126;8.698;2022-12-16T17:06:03;-0.90;1.00
997;DHT22;487;50.126;8.698;2022-12-16T17:08:48;-0.90;1.00
997;DHT22;487;50.126;8.698;2022-12-16T17:11:35;-0.90;1.00
997;DHT22;487;50.126;8.698;2022-12-16T17:14:22;-0.90;1.00
997;DHT22;487;50.126;8.698;2022-12-16T17:19:54;-0.90;1.00
997;DHT22;487;50.126;8.698;2022-12-16T17:22:41;-0.90;1.00
997;DHT22;487;50.126;8.698;2022-12-16T17:25:26;-1.00;1.00
997;DHT22;487;50.126;8.698;2022-12-16T17:28:12;-1.10;1.00
997;DHT22;487;50.126;8.698;2022-12-16T17:30:57;-1.10;1.00
997;DHT22;487;50.126;8.698;2022-12-16T17:33:43;-1.00;1.00
997;DHT22;487;50.126;8.698;2022-12-16T17:36:28;-1.10;1.00
997;DHT22;487;50.126;8.698;2022-12-16T17:39:15;-1.10;1.00
997;DHT22;487;50.126;8.698;2022-12-16T17:42:00;-1.10;1.00
997;DHT22;487;50.126;8.698;2022-12-16T17:44:46;-1.00;1.00
997;DHT22;487;50.126;8.698;2022-12-16T17:50:17;-1.00;1.00
997;DHT22;487;50.126;8.698;2022-12-16T17:53:03;-1.00;1.00
997;DHT22;487;50.126;8.698;2022-12-16T17:58:37;-1.10;1.00
997;DHT22;487;50.126;8.698;2022-12-16T18:01:23;-1.10;1.00
997;DHT22;487;50.126;8.698;2022-12-16T18:04:09;-1.00;1.00
997;DHT22;487;50.126;8.698;2022-12-16T18:06:54;-1.00;1.00
997;DHT22;487;50.126;8.698;2022-12-16T18:09:40;-1.00;1.00
997;DHT22;487;50.126;8.698;2022-12-16T18:12:26;-1.00;1.00
997;DHT22;487;50.126;8.698;2022-12-16T18:15:12;-1.10;1.00
997;DHT22;487;50.126;8.698;2022-12-16T18:17:58;-1.10;1.00
997;DHT22;487;50.126;8.698;2022-12-16T18:20:43;-1.10;1.00
997;DHT22;487;50.126;8.698;2022-12-16T18:23:29;-1.10;1.00
997;DHT22;487;50.126;8.698;2022-12-16T18:26:15;-1.10;1.00
997;DHT22;487;50.126;8.698;2022-12-16T18:29:02;-1.00;1.00
997;DHT22;487;50.126;8.698;2022-12-16T18:31:48;-1.00;1.00
997;DHT22;487;50.126;8.698;2022-12-16T18:34:33;-1.00;1.00
997;DHT22;487;50.126;8.698;2022-12-16T18:37:19;-1.00;1.00
997;DHT22;487;50.126;8.698;2022-12-16T18:42:51;-1.00;1.00
997;DHT22;487;50.126;8.698;2022-12-16T18:45:38;-1.00;1.00
997;DHT22;487;50.126;8.698;2022-12-16T18:48:24;-1.00;1.00
997;DHT22;487;50.126;8.698;2022-12-16T18:51:09;-1.00;1.00
997;DHT22;487;50.126;8.698;2022-12-16T18:53:55;-1.10;1.00
997;DHT22;487;50.126;8.698;2022-12-16T18:56:40;-1.10;1.00
997;DHT22;487;50.126;8.698;2022-12-16T18:59:25;-1.20;1.00
997;DHT22;487;50.126;8.698;2022-12-16T19:02:12;-1.20;1.00
997;DHT22;487;50.126;8.698;2022-12-16T19:04:58;-1.20;1.00
997;DHT22;487;50.126;8.698;2022-12-16T19:07:43;-1.20;1.00
997;DHT22;487;50.126;8.698;2022-12-16T19:10:29;-1.20;1.00
997;DHT22;487;50.126;8.698;2022-12-16T19:13:22;-1.20;1.00
997;DHT22;487;50.126;8.698;2022-12-16T19:16:08;-1.30;1.00
997;DHT22;487;50.126;8.698;2022-12-16T19:18:55;-1.30;1.00
997;DHT22;487;50.126;8.698;2022-12-16T19:21:45;-1.30;1.00
997;DHT22;487;50.126;8.698;2022-12-16T19:24:31;-1.30;1.00
997;DHT22;487;50.126;8.698;2022-12-16T19:27:17;-1.30;1.00
997;DHT22;487;50.126;8.698;2022-12-16T19:30:03;-1.30;1.00
997;DHT22;487;50.126;8.698;2022-12-16T19:32:49;-1.40;1.00
997;DHT22;487;50.126;8.698;2022-12-16T19:35:56;-1.40;1.00
997;DHT22;487;50.126;8.698;2022-12-16T19:38:41;-1.30;1.00
997;DHT22;487;50.126;8.698;2022-12-16T19:41:26;-1.40;1.00
997;DHT22;487;50.126;8.698;2022-12-16T19:44:12;-1.40;1.00
997;DHT22;487;50.126;8.698;2022-12-16T19:46:56;-1.40;1.00
997;DHT22;487;50.126;8.698;2022-12-16T19:49:42;-1.40;1.00
997;DHT22;487;50.126;8.698;2022-12-16T19:52:29;-1.40;1.00
997;DHT22;487;50.126;8.698;2022-12-16T19:55:14;-1.40;1.00
997;DHT22;487;50.126;8.698;2022-12-16T19:58:00;-1.40;1.00
997;DHT22;487;50.126;8.698;2022-12-16T20:00:45;-1.40;1.00
997;DHT22;487;50.126;8.698;2022-12-16T20:03:30;-1.40;1.00
997;DHT22;487;50.126;8.698;2022-12-16T20:06:22;-1.40;1.00
997;DHT22;487;50.126;8.698;2022-12-16T20:09:09;-1.40;1.00
997;DHT22;487;50.126;8.698;2022-12-16T20:11:54;-1.50;1.00
997;DHT22;487;50.126;8.698;2022-12-16T20:14:40;-1.50;1.00
997;DHT22;487;50.126;8.698;2022-12-16T20:17:25;-1.50;1.00
997;DHT22;487;50.126;8.698;2022-12-16T20:20:11;-1.50;1.00
997;DHT22;487;50.126;8.698;2022-12-16T20:22:56;-1.50;1.00
997;DHT22;487;50.126;8.698;2022-12-16T20:25:43;-1.50;1.00
997;DHT22;487;50.126;8.698;2022-12-16T20:28:28;-1.50;1.00
997;DHT22;487;50.126;8.698;2022-12-16T20:31:14;-1.50;1.00
997;DHT22;487;50.126;8.698;2022-12-16T20:33:59;-1.60;1.00
997;DHT22;487;50.126;8.698;2022-12-16T20:36:46;-1.60;1.00
997;DHT22;487;50.126;8.698;2022-12-16T20:39:31;-1.60;1.00
997;DHT22;487;50.126;8.698;2022-12-16T20:42:23;-1.60;1.00
997;DHT22;487;50.126;8.698;2022-12-16T20:45:09;-1.60;1.00
997;DHT22;487;50.126;8.698;2022-12-16T20:47:58;-1.60;1.00
997;DHT22;487;50.126;8.698;2022-12-16T20:50:52;-1.60;1.00
997;DHT22;487;50.126;8.698;2022-12-16T20:53:37;-1.60;1.00
997;DHT22;487;50.126;8.698;2022-12-16T20:56:25;-1.60;1.00
997;DHT22;487;50.126;8.698;2022-12-16T20:59:11;-1.60;1.00
997;DHT22;487;50.126;8.698;2022-12-16T21:02:12;-1.60;1.00
997;DHT22;487;50.126;8.698;2022-12-16T21:05:18;-1.60;1.00
997;DHT22;487;50.126;8.698;2022-12-16T21:08:04;-1.60;1.00
997;DHT22;487;50.126;8.698;2022-12-16T21:10:49;-1.70;1.00
997;DHT22;487;50.126;8.698;2022-12-16T21:13:35;-1.70;1.00
997;DHT22;487;50.126;8.698;2022-12-16T21:16:23;-1.70;1.00
997;DHT22;487;50.126;8.698;2022-12-16T21:19:08;-1.80;1.00
997;DHT22;487;50.126;8.698;2022-12-16T21:21:59;-1.80;1.00
997;DHT22;487;50.126;8.698;2022-12-16T21:24:44;-1.80;1.00
997;DHT22;487;50.126;8.698;2022-12-16T21:27:26;-1.80;1.00
997;DHT22;487;50.126;8.698;2022-12-16T21:30:12;-1.80;1.00
997;DHT22;487;50.126;8.698;2022-12-16T21:32:59;-1.80;1.00
997;DHT22;487;50.126;8.698;2022-12-16T21:35:50;-1.80;1.00
997;DHT22;487;50.126;8.698;2022-12-16T21:38:35;-1.80;1.00
997;DHT22;487;50.126;8.698;2022-12-16T21:41:21;-1.80;1.00
997;DHT22;487;50.126;8.698;2022-12-16T21:44:07;-1.90;1.00
997;DHT22;487;50.126;8.698;2022-12-16T21:46:52;-1.90;1.00
997;DHT22;487;50.126;8.698;2022-12-16T21:49:39;-1.90;1.00
997;DHT22;487;50.126;8.698;2022-12-16T21:52:24;-1.90;1.00
997;DHT22;487;50.126;8.698;2022-12-16T21:55:10;-1.90;1.00
997;DHT22;487;50.126;8.698;2022-12-16T21:57:56;-1.90;1.00
997;DHT22;487;50.126;8.698;2022-12-16T22:00:41;-1.90;1.00
997;DHT22;487;50.126;8.698;2022-12-16T22:03:32;-1.90;1.00
997;DHT22;487;50.126;8.698;2022-12-16T22:09:13;-1.90;1.00
997;DHT22;487;50.126;8.698;2022-12-16T22:11:59;-1.90;1.00
997;DHT22;487;50.126;8.698;2022-12-16T22:14:44;-1.90;1.00
997;DHT22;487;50.126;8.698;2022-12-16T22:17:30;-2.00;1.00
997;DHT22;487;50.126;8.698;2022-12-16T22:20:23;-2.00;1.00
997;DHT22;487;50.126;8.698;2022-12-16T22:23:10;-2.00;1.00
997;DHT22;487;50.126;8.698;2022-12-16T22:28:41;-1.90;1.00
997;DHT22;487;50.126;8.698;2022-12-16T22:31:27;-2.00;1.00
997;DHT22;487;50.126;8.698;2022-12-16T22:34:13;-1.90;1.00
997;DHT22;487;50.126;8.698;2022-12-16T22:37:06;-2.00;1.00
997;DHT22;487;50.126;8.698;2022-12-16T22:42:39;-2.00;1.00
997;DHT22;487;50.126;8.698;2022-12-16T22:45:25;-2.00;1.00
997;DHT22;487;50.126;8.698;2022-12-16T22:48:10;-2.00;1.00
997;DHT22;487;50.126;8.698;2022-12-16T22:50:56;-2.00;1.00
997;DHT22;487;50.126;8.698;2022-12-16T22:53:41;-2.00;1.00
997;DHT22;487;50.126;8.698;2022-12-16T22:56:30;-2.00;1.00
997;DHT22;487;50.126;8.698;2022-12-16T22:59:15;-2.00;1.00
997;DHT22;487;50.126;8.698;2022-12-16T23:02:01;-2.00;1.00
997;DHT22;487;50.126;8.698;2022-12-16T23:04:46;-2.00;1.00
997;DHT22;487;50.126;8.698;2022-12-16T23:07:32;-2.00;1.00
997;DHT22;487;50.126;8.698;2022-12-16T23:10:18;-1.90;1.00
997;DHT22;487;50.126;8.698;2022-12-16T23:13:05;-1.90;1.00
997;DHT22;487;50.126;8.698;2022-12-16T23:15:51;-1.90;1.00
997;DHT22;487;50.126;8.698;2022-12-16T23:18:36;-1.90;1.00
997;DHT22;487;50.126;8.698;2022-12-16T23:21:22;-1.90;1.00
997;DHT22;487;50.126;8.698;2022-12-16T23:24:08;-2.00;1.00
997;DHT22;487;50.126;8.698;2022-12-16T23:29:41;-2.00;1.00
997;DHT22;487;50.126;8.698;2022-12-16T23:32:29;-2.00;1.00
997;DHT22;487;50.126;8.698;2022-12-16T23:35:14;-2.00;1.00
997;DHT22;487;50.126;8.698;2022-12-16T23:38:00;-1.90;1.00
997;DHT22;487;50.126;8.698;2022-12-16T23:40:46;-2.00;1.00
997;DHT22;487;50.126;8.698;2022-12-16T23:43:31;-2.00;1.00
997;DHT22;487;50.126;8.698;2022-12-16T23:46:18;-2.00;1.00
997;DHT22;487;50.126;8.698;2022-12-16T23:49:00;-2.00;1.00
997;DHT22;487;50.126;8.698;2022-12-16T23:51:48;-2.00;1.00
997;DHT22;487;50.126;8.698;2022-12-16T23:54:49;-2.00;1.00
997;DHT22;487;50.126;8.698;2022-12-16T23:57:36;-2.00;1.00